Time;durP1;ratioP1;P1;durP2;ratioP2;P2;SDS_P1;SDS_P2;PMS_P1;PMS_P2;Temp;Humidity;BMP_temperature;BMP_pressure;BME280_temperature;BME280_humidity;BME280_pressure;Samples;Min_cycle;Max_cycle;Signal;HPM_P1;HPM_P2
2023/12/25 00:02:06;;;;;;;22.95;11.18;;;;;;;-9.46;76.65;101081.91;5031380;28;20055;-62
2023/12/25 00:04:36;;;;;;;23.92;11.07;;;;;;;-9.23;77.55;101082.03;5034088;28;20056;-62
2023/12/25 00:07:10;;;;;;;28.15;12.35;;;;;;;-9.15;77.52;101086.00;5043980;28;20061;-63
2023/12/25 00:09:41;;;;;;;29.48;12.02;;;;;;;-9.00;76.87;101090.47;5033974;28;20143;-62
2023/12/25 00:12:11;;;;;;;27.17;11.60;;;;;;;-8.76;76.61;101079.63;5044236;28;20048;-62
2023/12/25 00:14:42;;;;;;;21.35;10.68;;;;;;;-8.40;77.05;101078.00;5033943;28;20077;-62
2023/12/25 00:17:13;;;;;;;23.75;11.00;;;;;;;-8.26;76.23;101072.25;5044201;28;20105;-62
2023/12/25 00:19:43;;;;;;;24.08;11.82;;;;;;;-8.06;76.25;101077.88;5034480;28;20055;-62
2023/12/25 00:22:16;;;;;;;23.95;12.93;;;;;;;-7.95;76.04;101069.34;5027183;28;20041;-62
2023/12/25 00:24:46;;;;;;;30.58;13.75;;;;;;;-7.94;74.85;101066.03;5014416;28;20077;-62
2023/12/25 00:27:17;;;;;;;25.80;13.45;;;;;;;-7.76;74.93;101060.47;5024534;28;20091;-62
2023/12/25 00:29:47;;;;;;;28.60;13.90;;;;;;;-7.76;73.55;101065.56;5015010;28;20037;-62
2023/12/25 00:32:17;;;;;;;30.15;13.43;;;;;;;-7.86;73.17;101064.06;5031763;28;20056;-62
2023/12/25 00:34:48;;;;;;;27.00;14.05;;;;;;;-7.79;73.51;101062.81;5034611;28;20139;-62
2023/12/25 00:37:20;;;;;;;28.25;13.65;;;;;;;-7.83;72.86;101070.22;5044325;28;20496;-63
2023/12/25 00:39:50;;;;;;;27.20;13.73;;;;;;;-7.75;73.03;101067.34;5034008;28;20053;-63
2023/12/25 00:42:21;;;;;;;28.27;14.38;;;;;;;-7.78;72.72;101068.00;5044133;28;20113;-61
2023/12/25 00:44:51;;;;;;;29.27;14.48;;;;;;;-7.61;73.02;101066.66;5033981;28;20049;-62
2023/12/25 00:47:22;;;;;;;27.38;15.07;;;;;;;-7.51;72.37;101060.50;5038474;28;20746;-62
2023/12/25 00:49:52;;;;;;;30.75;14.82;;;;;;;-7.36;71.89;101053.97;5014681;28;20064;-62
2023/12/25 00:52:24;;;;;;;30.38;16.30;;;;;;;-7.13;71.41;101062.25;5024479;28;20045;-62
2023/12/25 00:54:55;;;;;;;30.70;15.35;;;;;;;-6.90;71.61;101061.25;5026862;28;20064;-62
2023/12/25 00:57:26;;;;;;;33.92;16.27;;;;;;;-6.65;70.82;101049.34;5042660;28;20101;-62
2023/12/25 00:59:57;;;;;;;31.08;14.82;;;;;;;-6.42;70.77;101037.25;5052368;28;20048;-63
2023/12/25 01:02:27;;;;;;;33.50;15.45;;;;;;;-6.27;70.18;101045.84;5062339;28;20047;-63
2023/12/25 01:04:58;;;;;;;33.38;16.08;;;;;;;-6.31;69.89;101046.47;5052334;28;20075;-63
2023/12/25 01:07:30;;;;;;;28.13;15.05;;;;;;;-6.12;70.20;101039.19;5062737;28;20064;-62
2023/12/25 01:10:00;;;;;;;32.22;14.40;;;;;;;-5.86;69.59;101032.28;5041248;28;20576;-61
2023/12/25 01:12:31;;;;;;;32.03;15.57;;;;;;;-5.52;68.60;101029.22;5057904;28;20076;-61
2023/12/25 01:15:01;;;;;;;34.88;17.05;;;;;;;-5.15;68.51;101017.00;5044109;28;20647;-61
2023/12/25 01:17:32;;;;;;;30.25;15.48;;;;;;;-4.83;67.46;101023.97;5047582;28;20500;-61
2023/12/25 01:20:03;;;;;;;31.15;15.25;;;;;;;-4.65;66.36;101005.44;5043697;28;20129;-62
2023/12/25 01:22:35;;;;;;;27.50;15.65;;;;;;;-4.53;65.52;101011.22;5033508;28;20060;-62
2023/12/25 01:25:07;;;;;;;33.63;16.88;;;;;;;-4.36;65.09;101000.28;5043303;28;20076;-61
2023/12/25 01:27:47;;;;;;;36.40;16.45;;;;;;;-4.21;64.72;100999.38;5032856;28;20059;-62
2023/12/25 01:30:17;;;;;;;28.30;15.25;;;;;;;-4.24;64.09;101004.28;5038849;28;20536;-61
2023/12/25 01:32:48;;;;;;;27.60;14.80;;;;;;;-3.82;65.59;100994.66;5028727;28;20522;-63
2023/12/25 01:35:19;;;;;;;29.27;14.25;;;;;;;-3.54;64.36;100995.31;5038620;28;20141;-61
2023/12/25 01:37:51;;;;;;;33.25;15.10;;;;;;;-3.45;64.02;100991.47;5028895;28;20056;-60
2023/12/25 01:40:22;;;;;;;27.27;15.32;;;;;;;-3.47;64.19;100984.63;5038316;28;20055;-62
2023/12/25 01:42:56;;;;;;;26.50;14.55;;;;;;;-3.53;63.96;100984.28;5028373;28;20064;-62
2023/12/25 01:45:27;;;;;;;28.20;14.40;;;;;;;-3.79;64.04;100990.59;5033760;28;20080;-62
2023/12/25 01:47:57;;;;;;;27.98;14.50;;;;;;;-3.97;64.64;100972.63;5038314;28;20048;-60
2023/12/25 01:50:29;;;;;;;31.98;15.45;;;;;;;-4.11;65.34;100981.22;5057819;28;20056;-61
2023/12/25 01:53:02;;;;;;;29.25;14.85;;;;;;;-4.32;65.75;100974.94;5048384;28;20079;-63
2023/12/25 01:55:34;;;;;;;30.88;14.20;;;;;;;-4.34;66.59;100973.19;5050886;28;20060;-62
2023/12/25 01:58:04;;;;;;;30.95;16.27;;;;;;;-4.28;66.92;100971.75;5057681;28;20494;-60
2023/12/25 02:00:35;;;;;;;31.58;14.95;;;;;;;-4.26;67.24;100965.09;5047457;28;20186;-60
2023/12/25 02:03:06;;;;;;;27.30;13.85;;;;;;;-4.34;68.16;100947.69;5054996;28;20496;-60
2023/12/25 02:05:37;;;;;;;26.38;14.77;;;;;;;-4.47;68.05;100919.72;5047985;28;20044;-60
2023/12/25 02:08:13;;;;;;;31.00;14.30;;;;;;;-4.16;68.67;100952.03;5058383;28;20048;-61
2023/12/25 02:10:44;;;;;;;28.08;13.43;;;;;;;-4.04;68.97;100952.69;5048287;28;20043;-60
2023/12/25 02:13:14;;;;;;;27.52;12.98;;;;;;;-3.91;69.08;100944.84;5057644;28;20182;-61
2023/12/25 02:15:45;;;;;;;25.55;13.90;;;;;;;-3.91;68.73;100937.19;5047591;28;20554;-61
2023/12/25 02:18:16;;;;;;;25.52;12.43;;;;;;;-3.76;69.04;100943.91;5058473;28;20129;-61
2023/12/25 02:20:47;;;;;;;27.08;12.85;;;;;;;-3.78;67.86;100931.06;5047822;28;20048;-61
2023/12/25 02:23:20;;;;;;;22.95;12.38;;;;;;;-3.77;68.73;100926.81;5058455;28;20072;-60
2023/12/25 02:25:57;;;;;;;29.58;13.95;;;;;;;-3.79;68.27;100908.00;5046378;28;20066;-60
2023/12/25 02:28:28;;;;;;;25.50;13.73;;;;;;;-3.67;69.22;100906.06;5057558;28;20060;-60
2023/12/25 02:30:58;;;;;;;25.27;13.52;;;;;;;-3.62;68.68;100902.09;5039508;28;20488;-59
2023/12/25 02:33:28;;;;;;;26.08;14.05;;;;;;;-3.72;68.48;100899.84;5057944;28;20105;-60
2023/12/25 02:35:59;;;;;;;28.88;14.40;;;;;;;-3.78;68.35;100889.31;5046751;28;20426;-61
2023/12/25 02:38:30;;;;;;;26.20;14.15;;;;;;;-3.69;68.20;100885.56;5055339;28;20102;-61
2023/12/25 02:41:02;;;;;;;33.30;14.18;;;;;;;-3.70;68.26;100873.56;5040518;28;20058;-60
2023/12/25 02:43:32;;;;;;;30.50;14.45;;;;;;;-3.60;68.04;100880.03;5054021;28;20083;-60
2023/12/25 02:46:03;;;;;;;25.65;13.70;;;;;;;-3.51;68.59;100880.50;5054998;28;20706;-60
2023/12/25 02:48:33;;;;;;;29.48;14.18;;;;;;;-3.43;68.34;100882.56;5052200;28;20112;-60
2023/12/25 02:51:04;;;;;;;23.55;13.85;;;;;;;-3.28;68.33;100878.22;5061963;28;20047;-59
2023/12/25 02:53:34;;;;;;;26.70;14.00;;;;;;;-3.04;68.44;100879.41;5051563;28;20828;-60
2023/12/25 02:56:07;;;;;;;27.90;15.05;;;;;;;-2.88;68.02;100875.03;5062251;28;20048;-61
2023/12/25 02:58:37;;;;;;;29.65;14.40;;;;;;;-2.87;67.99;100871.66;5048317;28;20109;-60
2023/12/25 03:01:08;;;;;;;31.27;16.10;;;;;;;-2.97;67.59;100874.56;5058791;28;20139;-60
2023/12/25 03:03:38;;;;;;;28.40;14.80;;;;;;;-3.01;67.83;100878.69;5047328;28;20048;-60
2023/12/25 03:06:09;;;;;;;29.02;14.55;;;;;;;-2.99;66.88;100865.97;5060967;28;20054;-61
2023/12/25 03:08:39;;;;;;;24.48;12.38;;;;;;;-2.97;67.03;100859.22;5050746;28;20059;-61
2023/12/25 03:11:11;;;;;;;19.95;11.00;;;;;;;-2.87;66.73;100851.19;5061711;28;20821;-61
2023/12/25 03:13:42;;;;;;;19.70;10.90;;;;;;;-2.77;66.84;100835.50;5050904;28;20132;-60
2023/12/25 03:16:12;;;;;;;25.77;11.32;;;;;;;-2.67;66.55;100840.22;5060599;28;20044;-60
2023/12/25 03:18:43;;;;;;;28.88;10.75;;;;;;;-2.71;65.82;100838.31;5050517;28;20166;-60
2023/12/25 03:21:14;;;;;;;19.40;10.82;;;;;;;-2.64;66.30;100835.25;5060294;28;20048;-60
2023/12/25 03:23:44;;;;;;;21.92;10.10;;;;;;;-2.65;66.45;100832.59;5047064;28;20110;-61
2023/12/25 03:26:17;;;;;;;24.08;10.88;;;;;;;-2.59;66.65;100832.03;5061262;28;20048;-60
2023/12/25 03:28:47;;;;;;;18.33;8.98;;;;;;;-2.57;67.38;100828.75;5051116;28;20051;-61
2023/12/25 03:31:18;;;;;;;16.15;8.50;;;;;;;-2.62;67.61;100825.97;5061343;28;20080;-59
2023/12/25 03:33:48;;;;;;;18.38;7.93;;;;;;;-2.66;67.63;100830.88;5048024;28;20052;-60
2023/12/25 03:36:19;;;;;;;16.02;7.00;;;;;;;-2.70;67.76;100824.72;5058419;28;20534;-59
2023/12/25 03:38:49;;;;;;;12.25;6.18;;;;;;;-2.89;68.78;100822.13;5047690;28;20053;-60
2023/12/25 03:41:21;;;;;;;11.63;6.35;;;;;;;-2.86;69.66;100823.13;5059352;28;20056;-59
2023/12/25 03:43:52;;;;;;;10.32;5.90;;;;;;;-2.89;70.40;100817.03;5049966;28;20542;-60
2023/12/25 03:46:22;;;;;;;12.23;6.20;;;;;;;-2.94;70.36;100813.38;5060376;28;20075;-59
2023/12/25 03:48:52;;;;;;;9.57;5.03;;;;;;;-3.05;71.14;100811.16;5049194;28;20053;-61
2023/12/25 03:51:23;;;;;;;13.57;5.50;;;;;;;-3.03;71.77;100801.88;5060177;28;20408;-60
2023/12/25 03:53:54;;;;;;;12.98;7.05;;;;;;;-2.91;72.36;100800.72;5049887;28;20072;-61
2023/12/25 03:56:26;;;;;;;16.27;6.32;;;;;;;-2.75;72.59;100800.59;5060297;28;20052;-61
2023/12/25 03:58:57;;;;;;;12.10;6.28;;;;;;;-2.73;72.15;100793.00;5050760;28;20075;-60
2023/12/25 04:01:27;;;;;;;12.80;6.38;;;;;;;-2.63;72.57;100790.06;5056264;28;20125;-60
2023/12/25 04:03:57;;;;;;;11.82;6.20;;;;;;;-2.48;72.17;100792.44;5049242;28;20147;-60
2023/12/25 04:06:28;;;;;;;15.27;6.22;;;;;;;-2.52;71.83;100783.75;5059893;28;20130;-61
2023/12/25 04:08:59;;;;;;;9.13;5.32;;;;;;;-2.51;72.03;100787.19;5049615;28;20052;-59
2023/12/25 04:11:31;;;;;;;9.20;5.35;;;;;;;-2.55;71.91;100787.84;5059850;28;20047;-60
2023/12/25 04:14:02;;;;;;;11.10;5.35;;;;;;;-2.64;71.75;100789.19;5049310;28;20531;-61
2023/12/25 04:16:32;;;;;;;9.65;5.43;;;;;;;-2.69;71.97;100783.00;5056593;28;20144;-62
2023/12/25 04:19:03;;;;;;;7.15;4.93;;;;;;;-2.72;72.41;100785.44;5056534;28;20064;-62
2023/12/25 04:21:34;;;;;;;10.40;5.38;;;;;;;-2.89;72.49;100771.00;5049166;28;20062;-62
2023/12/25 04:24:05;;;;;;;9.93;6.10;;;;;;;-2.86;72.88;100771.13;5059206;28;20546;-61
2023/12/25 04:26:37;;;;;;;12.20;5.88;;;;;;;-2.90;73.09;100771.78;5045298;28;20117;-61
2023/12/25 04:29:09;;;;;;;13.60;7.22;;;;;;;-2.89;73.50;100766.75;5059693;28;20246;-62
2023/12/25 04:31:39;;;;;;;11.07;6.10;;;;;;;-2.75;73.64;100767.34;5049490;28;20155;-62
2023/12/25 04:34:10;;;;;;;11.13;5.95;;;;;;;-2.77;72.98;100768.09;5059014;28;20559;-62
2023/12/25 04:36:40;;;;;;;11.52;5.88;;;;;;;-2.71;73.75;100768.38;5049130;28;20059;-62
2023/12/25 04:39:11;;;;;;;10.70;5.95;;;;;;;-2.73;73.19;100750.41;5059253;28;20695;-62
2023/12/25 04:41:43;;;;;;;11.32;6.32;;;;;;;-2.58;73.10;100752.78;5048751;28;20056;-61
2023/12/25 04:44:13;;;;;;;10.55;5.90;;;;;;;-2.43;72.35;100767.91;5059350;28;20122;-61
2023/12/25 04:46:44;;;;;;;11.30;5.68;;;;;;;-2.46;72.00;100762.69;5049746;28;20043;-62
2023/12/25 04:49:14;;;;;;;14.48;5.65;;;;;;;-2.67;71.41;100766.03;5056498;28;20174;-62
2023/12/25 04:51:45;;;;;;;12.45;6.18;;;;;;;-2.92;71.50;100768.28;5048619;28;20052;-62
2023/12/25 04:54:15;;;;;;;13.18;5.93;;;;;;;-2.99;71.98;100759.47;5059190;28;20052;-61
2023/12/25 04:56:48;;;;;;;12.32;5.72;;;;;;;-3.03;72.50;100758.44;5048752;28;20139;-62
2023/12/25 04:59:20;;;;;;;13.90;6.20;;;;;;;-3.11;72.13;100749.53;5059294;28;20048;-62
2023/12/25 05:01:50;;;;;;;12.40;5.72;;;;;;;-3.18;72.26;100752.59;5048897;28;20056;-60
2023/12/25 05:04:20;;;;;;;16.00;7.25;;;;;;;-3.36;72.53;100759.41;5059240;28;20064;-60
2023/12/25 05:06:51;;;;;;;13.07;6.82;;;;;;;-3.52;72.86;100751.03;5048553;28;20156;-60
2023/12/25 05:09:22;;;;;;;13.10;6.50;;;;;;;-3.61;73.06;100758.25;5056199;28;20059;-62
2023/12/25 05:11:54;;;;;;;13.77;6.00;;;;;;;-3.67;73.03;100750.25;5045157;28;20065;-62
2023/12/25 05:14:24;;;;;;;11.38;6.15;;;;;;;-3.74;73.29;100758.44;5056190;28;20562;-61
2023/12/25 05:16:55;;;;;;;12.05;5.80;;;;;;;-3.78;73.15;100751.44;5048044;28;20072;-60
2023/12/25 05:19:25;;;;;;;15.98;6.75;;;;;;;-3.81;73.46;100735.97;5058671;28;20044;-61
2023/12/25 05:21:56;;;;;;;16.05;6.22;;;;;;;-3.69;73.46;100746.78;5048373;28;20052;-61
2023/12/25 05:24:26;;;;;;;13.48;5.72;;;;;;;-3.67;73.24;100737.50;5055841;28;20508;-61
2023/12/25 05:26:58;;;;;;;13.18;4.95;;;;;;;-3.57;73.77;100742.28;5045603;28;20144;-61
2023/12/25 05:29:28;;;;;;;10.73;5.63;;;;;;;-3.56;73.52;100743.13;5058829;28;20135;-61
2023/12/25 05:31:59;;;;;;;10.50;5.70;;;;;;;-3.63;73.57;100736.84;5048724;28;20117;-62
2023/12/25 05:34:30;;;;;;;11.15;5.57;;;;;;;-3.60;73.22;100742.09;5058623;28;20048;-61
2023/12/25 05:37:00;;;;;;;10.50;5.65;;;;;;;-3.58;73.29;100739.63;5042377;28;20056;-62
2023/12/25 05:39:31;;;;;;;12.63;5.80;;;;;;;-3.51;73.73;100751.91;5058336;28;20044;-61
2023/12/25 05:42:03;;;;;;;11.75;5.53;;;;;;;-3.62;73.53;100750.50;5047751;28;20059;-61
2023/12/25 05:44:33;;;;;;;11.27;5.35;;;;;;;-3.63;73.70;100747.06;5050048;28;20055;-61
2023/12/25 05:47:04;;;;;;;11.63;5.63;;;;;;;-3.73;72.99;100750.84;5058836;28;20048;-61
2023/12/25 05:49:39;;;;;;;11.68;5.60;;;;;;;-3.83;73.60;100747.78;5048398;28;20672;-60
2023/12/25 05:52:09;;;;;;;11.68;5.65;;;;;;;-3.91;73.56;100749.97;5058041;28;20159;-60
2023/12/25 05:54:41;;;;;;;13.70;5.88;;;;;;;-4.06;73.27;100744.97;5047889;28;20060;-61
2023/12/25 05:57:13;;;;;;;10.95;6.35;;;;;;;-4.16;73.52;100758.06;5058457;28;20089;-61
2023/12/25 05:59:43;;;;;;;11.02;6.45;;;;;;;-4.28;73.64;100757.44;5047234;28;20048;-62
2023/12/25 06:02:14;;;;;;;10.80;5.90;;;;;;;-4.41;73.77;100756.81;5057795;28;20684;-61
2023/12/25 06:04:44;;;;;;;11.35;6.63;;;;;;;-4.50;73.73;100776.72;5048631;28;20048;-61
2023/12/25 06:07:15;;;;;;;14.32;6.50;;;;;;;-4.57;74.44;100764.44;5055847;28;20051;-61
2023/12/25 06:09:45;;;;;;;13.20;7.18;;;;;;;-4.58;75.05;100763.56;5047769;28;20083;-61
2023/12/25 06:12:17;;;;;;;13.02;6.97;;;;;;;-4.68;75.47;100756.25;5055675;28;20152;-62
2023/12/25 06:14:47;;;;;;;18.63;9.38;;;;;;;-4.79;75.70;100747.16;5047749;28;20080;-61
2023/12/25 06:17:18;;;;;;;23.20;11.05;;;;;;;-4.86;75.93;100758.69;5058252;28;20056;-61
2023/12/25 06:19:48;;;;;;;27.60;13.07;;;;;;;-4.78;77.25;100754.88;5047808;28;20134;-61
2023/12/25 06:22:19;;;;;;;26.10;11.02;;;;;;;-4.74;77.70;100755.03;5055961;28;20064;-62
2023/12/25 06:24:49;;;;;;;15.43;8.43;;;;;;;-4.72;78.51;100761.09;5049606;28;20631;-63
2023/12/25 06:27:21;;;;;;;14.80;7.65;;;;;;;-4.74;79.06;100744.84;5058443;28;20055;-61
2023/12/25 06:29:52;;;;;;;17.83;8.10;;;;;;;-4.79;79.51;100748.03;5051660;28;20057;-63
2023/12/25 06:32:22;;;;;;;16.02;7.40;;;;;;;-4.78;79.90;100749.78;5059888;28;20417;-62
2023/12/25 06:34:53;;;;;;;15.85;7.90;;;;;;;-4.86;79.83;100751.06;5051647;28;20121;-63
2023/12/25 06:37:23;;;;;;;19.38;7.80;;;;;;;-4.90;80.64;100738.94;5058756;28;20052;-62
2023/12/25 06:39:54;;;;;;;15.50;7.57;;;;;;;-4.86;81.19;100756.16;5051669;28;20473;-64
2023/12/25 06:42:26;;;;;;;14.68;7.57;;;;;;;-4.85;81.53;100742.59;5061671;28;20135;-63
2023/12/25 06:44:56;;;;;;;15.07;7.68;;;;;;;-4.80;82.25;100736.06;5048156;28;20135;-62
2023/12/25 06:47:28;;;;;;;15.02;8.00;;;;;;;-4.90;81.71;100732.97;5059510;28;20055;-64
2023/12/25 06:49:58;;;;;;;17.50;8.27;;;;;;;-5.00;81.79;100731.59;5051561;28;20079;-61
2023/12/25 06:52:29;;;;;;;14.05;6.72;;;;;;;-4.97;82.35;100720.69;5061025;28;20091;-63
2023/12/25 06:54:59;;;;;;;14.43;7.57;;;;;;;-5.03;82.41;100721.25;5050710;28;20044;-65
2023/12/25 06:57:31;;;;;;;15.50;7.57;;;;;;;-5.15;81.83;100712.94;5058661;28;20144;-64
2023/12/25 07:00:02;;;;;;;16.38;7.63;;;;;;;-5.16;82.57;100708.66;5040260;28;20147;-62
2023/12/25 07:02:32;;;;;;;16.52;7.25;;;;;;;-5.15;83.05;100710.38;5054508;28;20052;-64
2023/12/25 07:05:04;;;;;;;12.38;6.88;;;;;;;-5.11;83.11;100708.09;5061545;28;20063;-63
2023/12/25 07:07:34;;;;;;;16.27;8.60;;;;;;;-5.13;83.38;100703.72;5051265;28;20066;-63
2023/12/25 07:10:06;;;;;;;19.17;8.50;;;;;;;-5.17;83.39;100711.97;5061160;28;20077;-63
2023/12/25 07:12:38;;;;;;;14.98;8.15;;;;;;;-5.24;83.11;100706.56;5047876;28;20507;-64
2023/12/25 07:15:09;;;;;;;15.55;8.38;;;;;;;-5.28;83.36;100719.91;5061004;28;20875;-63
2023/12/25 07:17:39;;;;;;;21.27;9.13;;;;;;;-5.34;83.38;100714.50;5053804;28;20055;-61
2023/12/25 07:20:11;;;;;;;19.50;8.98;;;;;;;-5.45;84.07;100700.28;5065641;28;20281;-64
2023/12/25 07:22:41;;;;;;;18.17;8.73;;;;;;;-5.38;84.01;100720.22;5034930;28;20098;-62
2023/12/25 07:25:11;;;;;;;20.80;9.50;;;;;;;-5.42;84.21;100725.91;5058657;28;20400;-61
2023/12/25 07:27:43;;;;;;;19.13;8.55;;;;;;;-5.44;84.21;100722.44;5055607;28;20056;-61
2023/12/25 07:30:15;;;;;;;15.27;9.02;;;;;;;-5.53;84.58;100716.81;5065478;28;20140;-60
2023/12/25 07:32:46;;;;;;;19.75;9.73;;;;;;;-5.58;84.69;100703.84;5044972;28;20044;-62
2023/12/25 07:35:18;;;;;;;19.17;10.40;;;;;;;-5.57;85.50;100714.88;5024451;28;20425;-62
2023/12/25 07:37:49;;;;;;;27.00;11.18;;;;;;;-5.60;85.37;100699.44;5016147;28;20049;-60
2023/12/25 07:40:20;;;;;;;19.58;9.77;;;;;;;-5.55;85.75;100703.13;5025885;28;20055;-61
2023/12/25 07:42:55;;;;;;;19.85;9.98;;;;;;;-5.57;85.62;100699.63;5021585;28;20463;-64
2023/12/25 07:45:25;;;;;;;17.05;9.88;;;;;;;-5.58;86.04;100692.78;5064257;28;20105;-62
2023/12/25 07:47:56;;;;;;;21.98;9.15;;;;;;;-5.58;86.20;100693.66;5053809;28;20059;-63
2023/12/25 07:50:27;;;;;;;19.40;8.93;;;;;;;-5.52;87.01;100690.56;5064277;28;20044;-62
2023/12/25 07:52:57;;;;;;;15.45;8.35;;;;;;;-5.53;87.35;100681.19;5043725;28;20105;-61
2023/12/25 07:55:29;;;;;;;18.02;7.70;;;;;;;-5.42;87.79;100695.34;5051428;28;20095;-61
2023/12/25 07:58:01;;;;;;;14.18;7.00;;;;;;;-5.27;88.89;100680.91;5034549;28;20059;-61
2023/12/25 08:00:32;;;;;;;16.70;7.38;;;;;;;-5.23;89.14;100672.63;5044024;28;20143;-62
2023/12/25 08:03:02;;;;;;;13.75;6.47;;;;;;;-5.15;89.04;100669.63;5052581;28;20365;-63
2023/12/25 08:05:33;;;;;;;15.85;6.78;;;;;;;-5.18;88.71;100664.38;5049328;28;20099;-61
2023/12/25 08:08:04;;;;;;;14.10;6.45;;;;;;;-5.23;88.38;100667.53;5060411;28;20052;-63
2023/12/25 08:10:34;;;;;;;15.13;6.97;;;;;;;-5.11;88.79;100666.47;5047008;28;20168;-63
2023/12/25 08:13:06;;;;;;;10.65;5.65;;;;;;;-5.18;87.86;100674.56;5059406;28;20116;-62
2023/12/25 08:15:37;;;;;;;12.32;6.38;;;;;;;-5.17;88.18;100676.31;5049153;28;20174;-62
2023/12/25 08:18:08;;;;;;;14.98;6.88;;;;;;;-5.23;88.05;100675.19;5056808;28;20052;-62
2023/12/25 08:20:38;;;;;;;10.48;5.68;;;;;;;-5.16;88.27;100672.97;5048937;28;20059;-63
2023/12/25 08:23:09;;;;;;;15.02;6.32;;;;;;;-5.24;87.78;100668.34;5060038;28;20055;-62
2023/12/25 08:25:40;;;;;;;11.07;6.68;;;;;;;-5.30;87.57;100665.47;5049558;28;20114;-63
2023/12/25 08:28:13;;;;;;;13.55;6.40;;;;;;;-5.39;87.15;100670.09;5058986;28;20059;-62
2023/12/25 08:30:43;;;;;;;10.88;6.30;;;;;;;-5.42;87.13;100667.34;5048911;28;20155;-62
2023/12/25 08:33:14;;;;;;;11.93;6.50;;;;;;;-5.41;87.63;100669.13;5059200;28;20051;-63
2023/12/25 08:35:44;;;;;;;12.65;6.38;;;;;;;-5.41;87.93;100661.47;5048382;28;20180;-62
2023/12/25 08:38:15;;;;;;;11.80;6.63;;;;;;;-5.39;87.73;100659.00;5058493;28;20140;-63
2023/12/25 08:40:45;;;;;;;10.48;5.82;;;;;;;-5.44;87.61;100666.41;5048021;28;20536;-62
2023/12/25 08:43:17;;;;;;;10.23;6.35;;;;;;;-5.55;87.64;100654.75;5056827;28;20138;-63
2023/12/25 08:45:48;;;;;;;99.35;41.25;;;;;;;-5.70;87.41;100653.13;5046646;28;20113;-63
2023/12/25 08:48:19;;;;;;;251.98;115.50;;;;;;;-5.85;87.21;100657.38;5056412;28;20093;-64
2023/12/25 08:50:49;;;;;;;68.82;36.40;;;;;;;-5.96;87.41;100649.19;5045849;28;20048;-63
2023/12/25 08:53:20;;;;;;;49.33;28.35;;;;;;;-6.01;88.17;100645.50;5057833;28;20079;-61
2023/12/25 08:55:50;;;;;;;25.17;14.02;;;;;;;-5.98;88.53;100639.69;5049761;28;20553;-62
2023/12/25 08:58:22;;;;;;;20.95;11.27;;;;;;;-6.05;88.30;100637.59;5058563;28;20052;-61
2023/12/25 09:00:53;;;;;;;21.52;9.93;;;;;;;-6.13;88.68;100640.59;5046027;28;20056;-61
2023/12/25 09:03:23;;;;;;;19.88;9.02;;;;;;;-6.15;88.92;100642.16;5055536;28;20051;-61
2023/12/25 09:05:54;;;;;;;28.48;13.65;;;;;;;-6.20;88.97;100638.47;5045262;28;20075;-62
2023/12/25 09:08:25;;;;;;;87.13;33.05;;;;;;;-6.25;89.21;100634.81;5058448;28;20048;-63
2023/12/25 09:10:55;;;;;;;91.95;35.85;;;;;;;-6.26;89.41;100633.06;5048354;28;20052;-61
2023/12/25 09:13:27;;;;;;;104.47;39.95;;;;;;;-6.28;89.62;100634.63;5058312;28;20140;-63
2023/12/25 09:15:58;;;;;;;232.38;70.18;;;;;;;-6.25;89.83;100634.81;5044900;28;20062;-63
2023/12/25 09:18:29;;;;;;;209.10;62.80;;;;;;;-6.28;89.98;100632.09;5055819;28;20083;-62
2023/12/25 09:20:59;;;;;;;152.30;44.67;;;;;;;-6.37;89.66;100631.56;5044788;28;20117;-63
2023/12/25 09:23:30;;;;;;;226.55;65.07;;;;;;;-6.43;90.05;100626.13;5055513;28;20088;-62
2023/12/25 09:26:05;;;;;;;100.55;32.78;;;;;;;-6.40;90.83;100629.72;5041260;28;20059;-62
2023/12/25 09:28:38;;;;;;;22.63;10.02;;;;;;;-6.35;90.82;100627.44;5044685;28;20075;-61
2023/12/25 09:31:09;;;;;;;23.45;9.85;;;;;;;-6.29;91.58;100627.78;5057135;28;20132;-63
2023/12/25 09:33:39;;;;;;;15.85;8.48;;;;;;;-6.21;91.85;100629.13;5047207;28;20056;-62
2023/12/25 09:36:10;;;;;;;15.27;8.10;;;;;;;-6.11;92.37;100625.44;5055137;28;20056;-62
2023/12/25 09:38:41;;;;;;;26.95;9.90;;;;;;;-6.07;92.36;100625.66;5044879;28;20048;-63
2023/12/25 09:41:13;;;;;;;18.08;8.32;;;;;;;-5.99;92.51;100627.75;5058254;28;20047;-63
2023/12/25 09:43:46;;;;;;;20.50;10.10;;;;;;;-5.92;92.90;100624.72;5047566;28;20672;-63
2023/12/25 09:46:19;;;;;;;22.55;12.38;;;;;;;-5.83;93.10;100617.59;5058445;28;20485;-62
2023/12/25 09:48:50;;;;;;;20.92;10.75;;;;;;;-6.17;93.24;100542.00;5044692;28;20063;-62
2023/12/25 09:51:22;;;;;;;23.17;10.85;;;;;;;-5.79;92.85;100600.81;5056949;28;20086;-61
2023/12/25 09:53:53;;;;;;;17.83;9.63;;;;;;;-5.80;92.63;100602.50;5047527;28;20043;-63
2023/12/25 09:56:26;;;;;;;16.67;8.43;;;;;;;-5.90;92.17;100603.66;5058555;28;20151;-62
2023/12/25 09:59:00;;;;;;;12.88;7.65;;;;;;;-5.93;92.40;100597.53;5049271;28;20047;-63
2023/12/25 10:01:31;;;;;;;11.73;7.32;;;;;;;-5.89;93.07;100599.44;5061068;28;20051;-61
2023/12/25 10:04:02;;;;;;;12.75;6.75;;;;;;;-5.89;93.02;100589.25;5051909;28;20105;-63
2023/12/25 10:06:34;;;;;;;14.57;7.25;;;;;;;-5.88;93.44;100586.81;5055389;28;20522;-61
2023/12/25 10:09:05;;;;;;;11.57;6.40;;;;;;;-6.15;93.49;100540.41;5062079;28;20056;-63
2023/12/25 10:11:36;;;;;;;11.50;6.35;;;;;;;-5.95;93.78;100578.78;5051941;28;20055;-61
2023/12/25 10:14:08;;;;;;;12.32;6.45;;;;;;;-5.92;93.97;100576.38;5062267;28;20040;-63
2023/12/25 10:16:38;;;;;;;10.70;6.32;;;;;;;-5.90;94.28;100567.16;5051954;28;20152;-64
2023/12/25 10:19:09;;;;;;;14.38;6.82;;;;;;;-5.97;93.91;100575.28;5062444;28;20206;-62
2023/12/25 10:21:46;;;;;;;15.02;8.38;;;;;;;-6.17;93.16;100564.00;5050953;28;20051;-64
2023/12/25 10:24:17;;;;;;;11.25;6.93;;;;;;;-6.31;92.88;100575.97;5061739;28;20575;-64
2023/12/25 10:26:48;;;;;;;13.23;6.82;;;;;;;-6.48;92.78;100571.63;5048652;28;20056;-62
2023/12/25 10:29:20;;;;;;;10.43;6.00;;;;;;;-6.53;93.66;100561.19;5060826;28;20044;-63
2023/12/25 10:31:51;;;;;;;9.30;5.95;;;;;;;-6.53;93.75;100567.13;5051123;28;20832;-61
2023/12/25 10:34:21;;;;;;;14.32;7.55;;;;;;;-6.58;94.10;100553.28;5061575;28;20083;-61
2023/12/25 10:36:54;;;;;;;44.30;19.48;;;;;;;-6.60;94.14;100552.31;5051719;28;20252;-63
2023/12/25 10:39:32;;;;;;;24.38;12.75;;;;;;;-6.62;94.37;100561.50;5061753;28;20087;-63
2023/12/25 10:42:04;;;;;;;20.08;8.65;;;;;;;-6.52;95.26;100558.69;5050163;28;20043;-64
2023/12/25 10:44:38;;;;;;;13.05;7.47;;;;;;;-6.38;95.38;100556.09;5046873;28;20052;-61
2023/12/25 10:47:12;;;;;;;14.93;7.25;;;;;;;-6.35;95.30;100556.25;5059762;28;20044;-64
2023/12/25 10:49:44;;;;;;;13.73;7.22;;;;;;;-6.34;95.05;100558.88;5048763;28;20109;-62
2023/12/25 10:52:15;;;;;;;19.23;8.45;;;;;;;-6.35;94.94;100551.16;5057717;28;20496;-63
2023/12/25 10:54:47;;;;;;;16.48;7.57;;;;;;;-6.32;95.06;100551.31;5047203;28;20068;-63
2023/12/25 10:57:21;;;;;;;25.25;8.73;;;;;;;-6.37;94.74;100545.97;5057906;28;20060;-62
2023/12/25 10:59:55;;;;;;;37.08;12.25;;;;;;;-6.40;94.50;100542.41;5047455;28;20223;-61
2023/12/25 11:02:27;;;;;;;90.20;24.40;;;;;;;-6.40;94.64;100532.22;5060149;28;20080;-62
2023/12/25 11:04:58;;;;;;;114.95;30.73;;;;;;;-6.47;93.87;100535.22;5050509;28;20044;-64
2023/12/25 11:07:28;;;;;;;99.57;26.60;;;;;;;-6.52;94.00;100535.81;5060024;28;20139;-62
2023/12/25 11:10:03;;;;;;;70.00;21.63;;;;;;;-6.57;93.72;100534.69;5029448;28;20085;-61
2023/12/25 11:12:35;;;;;;;59.28;20.77;;;;;;;-6.58;93.95;100543.13;5031286;28;20139;-62
2023/12/25 11:15:07;;;;;;;54.42;19.05;;;;;;;-6.62;94.05;100546.25;5039941;28;20083;-63
2023/12/25 11:17:39;;;;;;;27.58;12.40;;;;;;;-6.62;94.21;100531.00;5029701;28;20052;-63
2023/12/25 11:20:12;;;;;;;22.35;9.80;;;;;;;-6.62;93.94;100532.69;5040907;28;20714;-63
2023/12/25 11:22:44;;;;;;;18.92;9.40;;;;;;;-6.64;94.21;100537.72;5050371;28;20140;-60
2023/12/25 11:25:16;;;;;;;70.55;19.60;;;;;;;-6.64;94.20;100530.06;5059384;28;20139;-63
2023/12/25 11:27:53;;;;;;;54.30;18.02;;;;;;;-6.69;94.51;100526.38;5047583;28;20060;-63
2023/12/25 11:30:26;;;;;;;68.82;19.88;;;;;;;-6.58;95.11;100532.94;5059690;28;20378;-63
2023/12/25 11:32:57;;;;;;;62.58;20.75;;;;;;;-6.61;94.84;100521.75;5049824;28;20056;-62